createdAt,value
2018-07-14T13:49:27.872Z,80.90
2018-07-14T13:51:58.869Z,81.20
2018-07-14T13:54:29.705Z,81.40
2018-07-14T13:57:00.476Z,81.80
2018-07-14T13:59:31.153Z,80.50
2018-07-14T14:02:01.898Z,80.90
2018-07-14T14:04:32.561Z,81.00
2018-07-14T14:07:03.300Z,80.40
2018-07-14T14:09:34.134Z,80.60
2018-07-14T14:12:04.930Z,79.80
2018-07-14T14:14:35.727Z,80.10
2018-07-14T14:17:06.604Z,80.70
2018-07-14T14:19:37.252Z,80.80
2018-07-14T14:22:07.957Z,81.10
2018-07-14T14:24:38.703Z,79.80
2018-07-14T14:27:09.618Z,79.70
2018-07-14T14:29:40.642Z,79.40
2018-07-14T14:32:11.514Z,78.90
2018-07-14T14:34:42.233Z,78.30
2018-07-14T14:37:12.931Z,79.70
2018-07-14T14:39:43.629Z,79.60
2018-07-14T14:42:14.373Z,79.50
2018-07-14T14:44:45.472Z,79.00
2018-07-14T14:47:16.215Z,78.90
2018-07-14T14:49:46.945Z,79.10
2018-07-14T14:52:18.723Z,77.30
2018-07-14T14:54:49.464Z,76.20
2018-07-14T14:57:20.197Z,76.40
2018-07-14T14:59:57.465Z,76.60
2018-07-14T15:02:28.189Z,73.70
2018-07-14T15:04:59.215Z,73.70
2018-07-14T15:07:30.074Z,72.90
2018-07-14T15:10:01.166Z,73.30
2018-07-14T15:12:31.982Z,71.30
2018-07-14T15:15:02.859Z,72.00
2018-07-14T15:17:33.808Z,72.40
2018-07-14T15:20:04.686Z,73.20
2018-07-14T15:22:35.442Z,72.90
2018-07-14T15:25:06.727Z,72.60
2018-07-14T15:27:38.040Z,72.90
2018-07-14T15:30:09.649Z,72.10
2018-07-14T15:32:40.635Z,72.90
2018-07-14T15:35:11.284Z,72.70
2018-07-14T15:37:42.056Z,71.70
2018-07-14T17:54:16.077Z,72.20
2018-07-14T17:56:46.995Z,72.50
2018-07-14T17:59:19.173Z,73.30
2018-07-14T18:02:06.267Z,74.10
2018-07-14T18:04:37.187Z,74.70
2018-07-14T18:07:07.885Z,75.60
2018-07-14T18:09:53.596Z,76.60
2018-07-14T18:12:24.641Z,77.10
2018-07-14T18:14:55.610Z,77.70
2018-07-14T18:17:26.415Z,78.50
2018-07-14T18:19:57.522Z,79.50
2018-07-14T18:22:33.508Z,79.50
2018-07-14T18:25:06.041Z,79.20
